createdAt,value
2022-09-05T00:04:57.831Z,3.40
2022-09-05T00:10:12.970Z,3.40
2022-09-05T00:15:26.046Z,2.97
2022-09-05T00:24:20.904Z,3.47
2022-09-05T00:26:17.249Z,3.13
2022-09-05T00:31:54.977Z,3.10
2022-09-05T00:37:00.096Z,3.17
2022-09-05T00:42:10.777Z,2.90
2022-09-05T00:47:26.316Z,3.13
2022-09-05T00:52:36.115Z,3.58
2022-09-05T00:58:00.624Z,3.55
2022-09-05T01:03:21.096Z,4.43
2022-09-05T01:08:40.992Z,3.97
2022-09-05T01:13:50.442Z,3.28
2022-09-05T01:19:05.790Z,3.05
2022-09-05T01:24:27.579Z,3.78
2022-09-05T01:29:38.231Z,3.20
2022-09-05T01:34:56.989Z,3.85
2022-09-05T01:40:15.892Z,3.42
2022-09-05T01:45:30.781Z,3.53
2022-09-05T01:50:54.388Z,3.47
2022-09-05T01:56:25.206Z,3.53
2022-09-05T02:01:41.020Z,3.90
2022-09-05T02:06:55.089Z,3.72
2022-09-05T02:12:02.899Z,3.97
2022-09-05T02:17:49.599Z,3.88
2022-09-05T02:22:58.288Z,4.22
2022-09-05T02:28:09.619Z,3.63
2022-09-05T02:33:21.889Z,3.72
2022-09-05T02:43:51.842Z,3.33
2022-09-05T02:45:11.900Z,3.75
2022-09-05T02:50:46.731Z,4.00
2022-09-05T02:58:04.979Z,4.00
2022-09-05T03:00:42.484Z,4.95
2022-09-05T03:05:56.945Z,3.80
2022-09-05T03:11:37.023Z,4.00
2022-09-05T03:17:40.718Z,4.15
2022-09-05T03:23:07.367Z,3.85
2022-09-05T03:28:43.698Z,4.00
2022-09-05T03:34:30.484Z,3.95
2022-09-05T03:40:15.675Z,3.47
2022-09-05T03:45:49.627Z,3.67
2022-09-05T03:57:06.747Z,3.70
2022-09-05T03:57:14.940Z,3.80
2022-09-05T04:04:30.476Z,3.65
2022-09-05T04:08:17.537Z,3.92
2022-09-05T04:13:20.946Z,3.45
2022-09-05T04:18:33.423Z,3.30
2022-09-05T04:23:57.809Z,3.38
2022-09-05T04:29:15.939Z,3.30
2022-09-05T04:34:34.154Z,3.40
2022-09-05T04:39:37.457Z,3.63
2022-09-05T04:44:47.749Z,3.35
2022-09-05T04:49:57.194Z,3.30
2022-09-05T04:55:07.363Z,3.60
2022-09-05T05:03:05.594Z,3.22
2022-09-05T05:06:18.909Z,3.17
2022-09-05T05:16:09.230Z,3.03
2022-09-05T05:18:11.321Z,3.20
2022-09-05T05:22:19.320Z,3.10
2022-09-05T05:27:27.876Z,2.80
2022-09-05T05:32:46.165Z,2.53
2022-09-05T05:37:55.229Z,3.40
2022-09-05T05:43:15.139Z,2.72
2022-09-05T05:48:34.982Z,2.75
2022-09-05T05:53:52.148Z,3.50
2022-09-05T05:59:30.424Z,2.85
2022-09-05T06:05:10.676Z,2.92
2022-09-05T06:14:26.148Z,3.60
2022-09-05T06:16:27.220Z,2.83
2022-09-05T06:22:13.774Z,2.72
2022-09-05T06:28:05.565Z,2.80
2022-09-05T06:33:20.824Z,4.10
2022-09-05T06:38:39.331Z,2.65
2022-09-05T06:44:23.851Z,2.90
2022-09-05T06:55:11.751Z,2.58
2022-09-05T07:00:23.168Z,2.72
2022-09-05T07:05:39.888Z,2.30
2022-09-05T07:10:58.267Z,3.00
2022-09-05T07:16:29.942Z,2.67
2022-09-05T07:21:49.226Z,2.38
2022-09-05T07:26:58.815Z,2.65
2022-09-05T07:32:06.399Z,2.47
2022-09-05T07:37:14.916Z,3.25
2022-09-05T07:42:25.301Z,2.55
2022-09-05T07:47:31.491Z,2.67
2022-09-05T07:56:47.244Z,2.80
2022-09-05T07:58:08.829Z,2.75
2022-09-05T08:03:13.901Z,2.90
2022-09-05T08:13:42.882Z,3.30
2022-09-05T08:18:54.220Z,3.10
2022-09-05T08:24:02.361Z,3.08
2022-09-05T08:29:30.930Z,3.22
2022-09-05T08:34:44.786Z,2.85
2022-09-05T08:39:54.324Z,2.58
2022-09-05T08:46:43.350Z,2.80
2022-09-05T08:51:11.170Z,2.88
2022-09-05T08:56:21.304Z,2.67
2022-09-05T09:01:44.570Z,2.70
2022-09-05T09:07:48.099Z,3.10
2022-09-05T09:13:03.624Z,2.92
2022-09-05T09:18:15.844Z,3.10
2022-09-05T09:23:42.648Z,3.08
2022-09-05T09:28:51.943Z,3.10
2022-09-05T09:34:24.275Z,3.78
2022-09-05T09:39:38.151Z,2.63
2022-09-05T09:45:28.719Z,3.20
2022-09-05T09:50:59.405Z,3.17
2022-09-05T09:56:29.009Z,2.83
2022-09-05T10:01:39.011Z,2.72
2022-09-05T10:11:09.180Z,2.90
2022-09-05T10:13:08.323Z,2.97
2022-09-05T10:18:39.921Z,4.23
2022-09-05T10:24:07.827Z,3.03
2022-09-05T10:29:36.891Z,2.70
2022-09-05T10:35:08.884Z,2.65
2022-09-05T10:40:14.395Z,3.75
2022-09-05T10:45:33.460Z,2.72
2022-09-05T10:50:44.611Z,2.67
2022-09-05T10:56:02.481Z,3.60
2022-09-05T11:02:26.443Z,2.65
2022-09-05T11:06:49.939Z,3.10
2022-09-05T11:12:04.661Z,2.53
2022-09-05T11:17:16.778Z,3.28
2022-09-05T11:22:24.582Z,2.80
2022-09-05T11:27:35.216Z,2.58
2022-09-05T11:39:45.624Z,2.83
2022-09-05T11:40:02.118Z,2.42
2022-09-05T11:44:35.679Z,2.90
2022-09-05T11:50:09.082Z,2.80
2022-09-05T11:55:49.490Z,3.25
2022-09-05T12:01:40.977Z,2.92
2022-09-05T12:06:49.663Z,3.20
2022-09-05T12:12:19.384Z,3.20
2022-09-05T12:17:50.901Z,3.28
2022-09-05T12:23:01.430Z,3.17
2022-09-05T12:28:31.412Z,3.05
2022-09-05T12:36:02.251Z,3.72
2022-09-05T12:41:32.746Z,2.60
2022-09-05T12:44:47.241Z,3.20
2022-09-05T12:50:03.447Z,3.17
2022-09-05T12:55:26.064Z,2.80
2022-09-05T13:03:03.376Z,2.90
2022-09-05T13:06:11.586Z,3.03
2022-09-05T13:14:46.679Z,3.42
2022-09-05T13:16:57.282Z,3.10
2022-09-05T13:22:04.082Z,3.58
2022-09-05T13:27:13.840Z,3.67
2022-09-05T13:37:59.804Z,3.50
2022-09-05T13:38:04.234Z,3.20
2022-09-05T13:43:13.836Z,3.50
2022-09-05T13:49:23.965Z,3.05
2022-09-05T13:54:24.275Z,3.58
2022-09-05T13:59:28.845Z,3.40
2022-09-05T14:05:11.068Z,3.40
2022-09-05T14:10:48.661Z,3.55
2022-09-05T14:15:58.799Z,3.35
2022-09-05T14:21:15.822Z,3.90
2022-09-05T14:26:26.661Z,3.50
2022-09-05T14:37:41.027Z,3.47
2022-09-05T14:37:53.460Z,3.15
2022-09-05T14:42:54.647Z,4.10
2022-09-05T14:48:13.266Z,3.40
2022-09-05T15:02:45.352Z,3.78
2022-09-05T15:12:14.821Z,3.97
2022-09-05T15:20:08.907Z,3.60
2022-09-05T15:25:18.900Z,4.35
2022-09-05T15:30:29.633Z,4.32
2022-09-05T15:35:42.473Z,3.15
2022-09-05T15:40:45.591Z,3.78
2022-09-05T15:45:50.143Z,2.90
2022-09-05T15:56:13.990Z,3.47
2022-09-05T16:01:48.573Z,3.78
2022-09-05T16:10:35.549Z,3.38
2022-09-05T16:12:27.635Z,3.33
2022-09-05T16:23:15.489Z,3.28
2022-09-05T16:23:34.061Z,3.83
2022-09-05T16:28:38.428Z,3.90
2022-09-05T16:33:43.660Z,4.15
2022-09-05T16:38:50.691Z,3.40
2022-09-05T16:43:58.148Z,3.63
2022-09-05T16:49:12.068Z,3.58
2022-09-05T16:54:21.900Z,3.70
2022-09-05T16:59:28.447Z,3.58
2022-09-05T17:05:02.990Z,3.50
2022-09-05T17:10:11.601Z,3.35
2022-09-05T17:15:17.364Z,3.90
2022-09-05T17:20:24.375Z,3.70
2022-09-05T17:29:49.900Z,3.33
2022-09-05T17:36:42.327Z,2.95
2022-09-05T17:42:05.122Z,3.20
2022-09-05T17:47:14.720Z,3.30
2022-09-05T17:52:23.357Z,3.17
2022-09-05T17:57:41.447Z,3.17
2022-09-05T18:02:54.595Z,3.28
2022-09-05T18:08:00.323Z,3.50
2022-09-05T18:19:33.035Z,3.80
2022-09-05T18:24:12.053Z,2.90
2022-09-05T18:29:28.690Z,3.63
2022-09-05T18:35:10.282Z,3.55
2022-09-05T18:40:36.831Z,3.63
2022-09-05T18:45:52.201Z,4.00
2022-09-05T18:51:15.009Z,3.20
2022-09-05T18:57:02.983Z,3.63
2022-09-05T19:02:04.955Z,3.55
2022-09-05T19:07:11.706Z,3.85
2022-09-05T19:12:34.964Z,3.88
2022-09-05T19:17:47.172Z,3.92
2022-09-05T19:23:10.443Z,3.80
2022-09-05T19:37:15.603Z,2.97
2022-09-05T19:41:51.197Z,3.70
2022-09-05T19:47:40.244Z,3.78
2022-09-05T19:50:06.599Z,3.45
2022-09-05T19:55:21.968Z,3.90
2022-09-05T20:00:28.391Z,3.80
2022-09-05T20:05:32.247Z,3.25
2022-09-05T20:10:36.365Z,3.58
2022-09-05T20:15:42.096Z,3.63
2022-09-05T20:20:52.418Z,3.40
2022-09-05T20:25:57.817Z,3.33
2022-09-05T20:31:08.294Z,3.00
2022-09-05T20:42:52.461Z,3.00
2022-09-05T20:43:18.922Z,3.63
2022-09-05T20:50:58.295Z,3.10
2022-09-05T20:54:17.179Z,2.70
2022-09-05T20:57:57.035Z,3.05
2022-09-05T21:03:01.950Z,2.70
2022-09-05T21:08:20.968Z,3.40
2022-09-05T21:13:27.083Z,2.78
2022-09-05T21:18:33.876Z,2.50
2022-09-05T21:23:38.514Z,2.13
2022-09-05T21:29:04.220Z,3.00
2022-09-05T21:34:13.151Z,2.33
2022-09-05T21:39:18.631Z,2.42
2022-09-05T21:47:44.090Z,2.50
2022-09-05T21:49:46.445Z,2.22
2022-09-05T21:59:18.876Z,2.33
2022-09-05T22:00:17.151Z,1.95
2022-09-05T22:05:25.282Z,2.35
2022-09-05T22:10:35.687Z,2.03
2022-09-05T22:15:59.304Z,2.20
2022-09-05T22:21:34.182Z,1.88
2022-09-05T22:26:35.782Z,1.40
2022-09-05T22:31:39.403Z,1.63
2022-09-05T22:36:44.087Z,1.50
2022-09-05T22:41:47.230Z,1.30
2022-09-05T22:46:52.451Z,1.30
2022-09-05T22:51:56.820Z,1.40
2022-09-05T22:56:59.844Z,1.47
2022-09-05T23:02:02.976Z,1.17
2022-09-05T23:07:07.403Z,1.50
2022-09-05T23:12:10.459Z,1.67
2022-09-05T23:17:13.603Z,1.33
2022-09-05T23:22:18.035Z,1.13
2022-09-05T23:27:21.258Z,1.30
2022-09-05T23:32:24.423Z,1.38
2022-09-05T23:37:29.022Z,1.30
2022-09-05T23:42:32.066Z,1.23
2022-09-05T23:47:35.513Z,0.93
2022-09-05T23:52:42.291Z,1.30
2022-09-05T23:57:46.997Z,0.90
